sensor_id;sensor_type;location;lat;lon;timestamp;P1;durP1;ratioP1;P2;durP2;ratioP2
11681;SDS011;5897;42.640;23.310;2024-02-14T00:02:03;6.40;;;5.80;;
11681;SDS011;5897;42.640;23.310;2024-02-14T00:04:31;6.03;;;5.53;;
11681;SDS011;5897;42.640;23.310;2024-02-14T00:06:57;5.95;;;5.10;;
11681;SDS011;5897;42.640;23.310;2024-02-14T00:09:26;5.80;;;5.30;;
11681;SDS011;5897;42.640;23.310;2024-02-14T00:11:52;5.50;;;5.00;;
11681;SDS011;5897;42.640;23.310;2024-02-14T00:14:19;6.10;;;5.50;;
11681;SDS011;5897;42.640;23.310;2024-02-14T00:16:47;6.00;;;5.40;;
11681;SDS011;5897;42.640;23.310;2024-02-14T00:19:14;7.40;;;5.70;;
11681;SDS011;5897;42.640;23.310;2024-02-14T00:21:41;5.93;;;5.43;;
11681;SDS011;5897;42.640;23.310;2024-02-14T00:24:07;6.07;;;5.35;;
11681;SDS011;5897;42.640;23.310;2024-02-14T00:26:34;6.10;;;5.60;;
11681;SDS011;5897;42.640;23.310;2024-02-14T00:29:01;5.97;;;5.45;;
11681;SDS011;5897;42.640;23.310;2024-02-14T00:31:28;6.30;;;5.70;;
11681;SDS011;5897;42.640;23.310;2024-02-14T00:33:56;6.60;;;6.00;;
11681;SDS011;5897;42.640;23.310;2024-02-14T00:36:23;6.00;;;5.40;;
11681;SDS011;5897;42.640;23.310;2024-02-14T00:38:49;6.30;;;5.50;;
11681;SDS011;5897;42.640;23.310;2024-02-14T00:41:16;6.63;;;5.97;;
11681;SDS011;5897;42.640;23.310;2024-02-14T00:43:43;6.20;;;5.60;;
11681;SDS011;5897;42.640;23.310;2024-02-14T00:46:15;6.32;;;5.72;;
11681;SDS011;5897;42.640;23.310;2024-02-14T00:48:42;6.50;;;5.90;;
11681;SDS011;5897;42.640;23.310;2024-02-14T00:51:10;6.43;;;5.53;;
11681;SDS011;5897;42.640;23.310;2024-02-14T00:53:37;6.18;;;5.65;;
11681;SDS011;5897;42.640;23.310;2024-02-14T00:56:04;5.82;;;5.32;;
11681;SDS011;5897;42.640;23.310;2024-02-14T00:58:31;6.78;;;6.18;;
11681;SDS011;5897;42.640;23.310;2024-02-14T01:00:58;6.05;;;5.47;;
11681;SDS011;5897;42.640;23.310;2024-02-14T01:03:24;6.88;;;6.18;;
11681;SDS011;5897;42.640;23.310;2024-02-14T01:05:51;7.05;;;6.13;;
11681;SDS011;5897;42.640;23.310;2024-02-14T01:08:19;6.53;;;5.93;;
11681;SDS011;5897;42.640;23.310;2024-02-14T01:10:46;6.65;;;5.95;;
11681;SDS011;5897;42.640;23.310;2024-02-14T01:13:14;6.18;;;5.65;;
11681;SDS011;5897;42.640;23.310;2024-02-14T01:15:40;7.00;;;6.30;;
11681;SDS011;5897;42.640;23.310;2024-02-14T01:18:07;7.30;;;6.25;;
11681;SDS011;5897;42.640;23.310;2024-02-14T01:20:35;7.03;;;6.32;;
11681;SDS011;5897;42.640;23.310;2024-02-14T01:23:02;6.75;;;6.15;;
11681;SDS011;5897;42.640;23.310;2024-02-14T01:25:31;7.00;;;6.40;;
11681;SDS011;5897;42.640;23.310;2024-02-14T01:27:59;6.22;;;5.72;;
11681;SDS011;5897;42.640;23.310;2024-02-14T01:30:25;6.97;;;6.28;;
11681;SDS011;5897;42.640;23.310;2024-02-14T01:32:55;7.07;;;6.40;;
11681;SDS011;5897;42.640;23.310;2024-02-14T01:35:22;7.18;;;6.47;;
11681;SDS011;5897;42.640;23.310;2024-02-14T01:37:48;6.90;;;6.22;;
11681;SDS011;5897;42.640;23.310;2024-02-14T01:40:17;7.75;;;7.00;;
11681;SDS011;5897;42.640;23.310;2024-02-14T01:42:45;7.57;;;6.85;;
11681;SDS011;5897;42.640;23.310;2024-02-14T01:45:12;7.40;;;6.63;;
11681;SDS011;5897;42.640;23.310;2024-02-14T01:47:39;7.00;;;6.40;;
11681;SDS011;5897;42.640;23.310;2024-02-14T01:50:07;7.78;;;6.50;;
11681;SDS011;5897;42.640;23.310;2024-02-14T01:52:36;7.32;;;6.63;;
11681;SDS011;5897;42.640;23.310;2024-02-14T01:55:04;7.30;;;6.65;;
11681;SDS011;5897;42.640;23.310;2024-02-14T01:57:31;8.13;;;7.32;;
11681;SDS011;5897;42.640;23.310;2024-02-14T02:00:02;7.72;;;7.03;;
11681;SDS011;5897;42.640;23.310;2024-02-14T02:02:33;7.28;;;6.57;;
11681;SDS011;5897;42.640;23.310;2024-02-14T02:05:01;7.75;;;6.32;;
11681;SDS011;5897;42.640;23.310;2024-02-14T02:07:28;7.53;;;6.82;;
11681;SDS011;5897;42.640;23.310;2024-02-14T02:09:58;7.28;;;6.57;;
11681;SDS011;5897;42.640;23.310;2024-02-14T02:12:26;7.07;;;6.38;;
11681;SDS011;5897;42.640;23.310;2024-02-14T02:14:53;6.53;;;5.82;;
11681;SDS011;5897;42.640;23.310;2024-02-14T02:17:21;7.28;;;6.57;;
11681;SDS011;5897;42.640;23.310;2024-02-14T02:19:49;7.38;;;6.68;;
11681;SDS011;5897;42.640;23.310;2024-02-14T02:22:16;7.97;;;6.45;;
11681;SDS011;5897;42.640;23.310;2024-02-14T02:24:44;7.20;;;6.60;;
11681;SDS011;5897;42.640;23.310;2024-02-14T02:27:12;7.47;;;6.78;;
11681;SDS011;5897;42.640;23.310;2024-02-14T02:29:41;9.02;;;7.00;;
11681;SDS011;5897;42.640;23.310;2024-02-14T02:32:08;6.80;;;6.20;;
11681;SDS011;5897;42.640;23.310;2024-02-14T02:34:35;7.40;;;6.68;;
11681;SDS011;5897;42.640;23.310;2024-02-14T02:37:04;7.47;;;6.43;;
11681;SDS011;5897;42.640;23.310;2024-02-14T02:39:32;7.65;;;6.70;;
11681;SDS011;5897;42.640;23.310;2024-02-14T02:42:00;7.15;;;6.45;;
11681;SDS011;5897;42.640;23.310;2024-02-14T02:44:27;7.15;;;6.45;;
11681;SDS011;5897;42.640;23.310;2024-02-14T02:46:54;7.18;;;6.47;;
11681;SDS011;5897;42.640;23.310;2024-02-14T02:49:21;6.75;;;6.15;;
11681;SDS011;5897;42.640;23.310;2024-02-14T02:51:47;7.15;;;6.40;;
11681;SDS011;5897;42.640;23.310;2024-02-14T02:54:14;7.60;;;6.45;;
11681;SDS011;5897;42.640;23.310;2024-02-14T02:56:41;7.28;;;6.20;;
11681;SDS011;5897;42.640;23.310;2024-02-14T02:59:11;7.05;;;6.35;;
11681;SDS011;5897;42.640;23.310;2024-02-14T03:01:39;6.85;;;6.25;;
11681;SDS011;5897;42.640;23.310;2024-02-14T03:04:06;7.25;;;6.63;;
11681;SDS011;5897;42.640;23.310;2024-02-14T03:06:33;7.25;;;6.55;;
11681;SDS011;5897;42.640;23.310;2024-02-14T03:09:00;7.30;;;6.60;;
11681;SDS011;5897;42.640;23.310;2024-02-14T03:11:34;7.63;;;6.78;;
11681;SDS011;5897;42.640;23.310;2024-02-14T03:14:02;7.65;;;6.63;;
11681;SDS011;5897;42.640;23.310;2024-02-14T03:16:33;7.78;;;6.97;;
11681;SDS011;5897;42.640;23.310;2024-02-14T03:19:02;7.28;;;6.47;;
11681;SDS011;5897;42.640;23.310;2024-02-14T03:21:30;7.75;;;6.38;;
11681;SDS011;5897;42.640;23.310;2024-02-14T03:23:57;7.75;;;6.47;;
11681;SDS011;5897;42.640;23.310;2024-02-14T03:26:24;7.45;;;6.63;;
11681;SDS011;5897;42.640;23.310;2024-02-14T03:28:52;7.20;;;6.50;;
11681;SDS011;5897;42.640;23.310;2024-02-14T03:31:18;6.53;;;5.93;;
11681;SDS011;5897;42.640;23.310;2024-02-14T03:33:47;8.73;;;7.88;;
11681;SDS011;5897;42.640;23.310;2024-02-14T03:36:13;7.40;;;6.70;;
11681;SDS011;5897;42.640;23.310;2024-02-14T03:38:40;8.27;;;7.43;;
11681;SDS011;5897;42.640;23.310;2024-02-14T03:41:06;8.10;;;7.30;;
11681;SDS011;5897;42.640;23.310;2024-02-14T03:43:33;7.63;;;6.93;;
11681;SDS011;5897;42.640;23.310;2024-02-14T03:46:00;7.35;;;6.68;;
11681;SDS011;5897;42.640;23.310;2024-02-14T03:48:26;7.68;;;6.95;;
11681;SDS011;5897;42.640;23.310;2024-02-14T03:50:54;7.18;;;6.57;;
11681;SDS011;5897;42.640;23.310;2024-02-14T03:53:22;7.22;;;6.53;;
11681;SDS011;5897;42.640;23.310;2024-02-14T03:55:49;7.45;;;6.75;;
11681;SDS011;5897;42.640;23.310;2024-02-14T03:58:17;7.60;;;6.82;;
11681;SDS011;5897;42.640;23.310;2024-02-14T04:00:47;7.22;;;6.50;;
11681;SDS011;5897;42.640;23.310;2024-02-14T04:03:15;7.63;;;6.82;;
11681;SDS011;5897;42.640;23.310;2024-02-14T04:05:42;6.90;;;6.30;;
11681;SDS011;5897;42.640;23.310;2024-02-14T04:08:10;7.22;;;6.53;;
11681;SDS011;5897;42.640;23.310;2024-02-14T04:10:39;7.13;;;6.43;;
11681;SDS011;5897;42.640;23.310;2024-02-14T04:13:06;7.53;;;6.72;;
11681;SDS011;5897;42.640;23.310;2024-02-14T04:15:35;7.28;;;6.57;;
11681;SDS011;5897;42.640;23.310;2024-02-14T04:18:01;7.70;;;7.00;;
11681;SDS011;5897;42.640;23.310;2024-02-14T04:20:31;7.50;;;6.80;;
11681;SDS011;5897;42.640;23.310;2024-02-14T04:22:57;7.53;;;6.82;;
11681;SDS011;5897;42.640;23.310;2024-02-14T04:25:26;7.38;;;6.50;;
11681;SDS011;5897;42.640;23.310;2024-02-14T04:27:52;7.88;;;7.10;;
11681;SDS011;5897;42.640;23.310;2024-02-14T04:30:19;8.00;;;7.20;;
11681;SDS011;5897;42.640;23.310;2024-02-14T04:32:46;8.45;;;6.93;;
11681;SDS011;5897;42.640;23.310;2024-02-14T04:35:14;7.68;;;6.97;;
11681;SDS011;5897;42.640;23.310;2024-02-14T04:37:40;8.20;;;6.82;;
11681;SDS011;5897;42.640;23.310;2024-02-14T04:40:11;8.10;;;7.30;;
11681;SDS011;5897;42.640;23.310;2024-02-14T04:42:40;8.52;;;7.63;;
11681;SDS011;5897;42.640;23.310;2024-02-14T04:45:07;8.18;;;7.38;;
11681;SDS011;5897;42.640;23.310;2024-02-14T04:47:34;8.18;;;7.38;;
11681;SDS011;5897;42.640;23.310;2024-02-14T04:50:01;8.40;;;7.57;;
11681;SDS011;5897;42.640;23.310;2024-02-14T04:52:29;8.52;;;7.72;;
11681;SDS011;5897;42.640;23.310;2024-02-14T04:54:55;9.30;;;8.30;;
11681;SDS011;5897;42.640;23.310;2024-02-14T04:57:22;8.23;;;7.43;;
11681;SDS011;5897;42.640;23.310;2024-02-14T04:59:50;8.55;;;7.75;;
11681;SDS011;5897;42.640;23.310;2024-02-14T05:02:17;8.95;;;8.10;;
11681;SDS011;5897;42.640;23.310;2024-02-14T05:04:44;8.70;;;7.90;;
11681;SDS011;5897;42.640;23.310;2024-02-14T05:07:10;8.70;;;7.90;;
11681;SDS011;5897;42.640;23.310;2024-02-14T05:09:41;8.48;;;7.68;;
11681;SDS011;5897;42.640;23.310;2024-02-14T05:12:07;8.60;;;7.80;;
11681;SDS011;5897;42.640;23.310;2024-02-14T05:14:37;8.88;;;7.97;;
11681;SDS011;5897;42.640;23.310;2024-02-14T05:17:07;9.63;;;8.38;;
11681;SDS011;5897;42.640;23.310;2024-02-14T05:19:33;9.15;;;8.23;;
11681;SDS011;5897;42.640;23.310;2024-02-14T05:22:00;9.10;;;8.20;;
11681;SDS011;5897;42.640;23.310;2024-02-14T05:24:27;9.10;;;8.20;;
11681;SDS011;5897;42.640;23.310;2024-02-14T05:26:54;8.88;;;8.07;;
11681;SDS011;5897;42.640;23.310;2024-02-14T05:29:21;9.85;;;8.95;;
11681;SDS011;5897;42.640;23.310;2024-02-14T05:31:47;9.80;;;8.90;;
11681;SDS011;5897;42.640;23.310;2024-02-14T05:34:16;9.25;;;8.35;;
11681;SDS011;5897;42.640;23.310;2024-02-14T05:36:42;8.93;;;8.02;;
11681;SDS011;5897;42.640;23.310;2024-02-14T05:39:12;9.77;;;8.88;;
11681;SDS011;5897;42.640;23.310;2024-02-14T05:41:40;10.45;;;8.93;;
11681;SDS011;5897;42.640;23.310;2024-02-14T05:44:07;9.52;;;8.63;;
11681;SDS011;5897;42.640;23.310;2024-02-14T05:46:34;9.52;;;8.63;;
11681;SDS011;5897;42.640;23.310;2024-02-14T05:49:00;10.13;;;9.15;;
11681;SDS011;5897;42.640;23.310;2024-02-14T05:51:28;10.02;;;9.02;;
11681;SDS011;5897;42.640;23.310;2024-02-14T05:53:55;9.98;;;8.98;;
11681;SDS011;5897;42.640;23.310;2024-02-14T05:56:22;9.45;;;8.65;;
11681;SDS011;5897;42.640;23.310;2024-02-14T05:58:51;8.80;;;7.93;;
11681;SDS011;5897;42.640;23.310;2024-02-14T06:01:18;9.75;;;8.75;;
11681;SDS011;5897;42.640;23.310;2024-02-14T06:03:44;10.25;;;9.23;;
11681;SDS011;5897;42.640;23.310;2024-02-14T06:06:11;9.40;;;8.50;;
11681;SDS011;5897;42.640;23.310;2024-02-14T06:08:39;9.85;;;8.85;;
11681;SDS011;5897;42.640;23.310;2024-02-14T06:11:06;9.40;;;8.40;;
11681;SDS011;5897;42.640;23.310;2024-02-14T06:13:33;9.65;;;8.68;;
11681;SDS011;5897;42.640;23.310;2024-02-14T06:16:00;9.13;;;8.32;;
11681;SDS011;5897;42.640;23.310;2024-02-14T06:18:27;9.55;;;8.65;;
11681;SDS011;5897;42.640;23.310;2024-02-14T06:20:54;9.02;;;8.23;;
11681;SDS011;5897;42.640;23.310;2024-02-14T06:23:20;9.20;;;8.30;;
11681;SDS011;5897;42.640;23.310;2024-02-14T06:25:49;9.35;;;8.45;;
11681;SDS011;5897;42.640;23.310;2024-02-14T06:28:15;8.93;;;8.02;;
11681;SDS011;5897;42.640;23.310;2024-02-14T06:30:42;9.07;;;7.97;;
11681;SDS011;5897;42.640;23.310;2024-02-14T06:33:08;8.95;;;8.05;;
11681;SDS011;5897;42.640;23.310;2024-02-14T06:35:35;9.00;;;8.07;;
11681;SDS011;5897;42.640;23.310;2024-02-14T06:38:02;8.88;;;7.85;;
11681;SDS011;5897;42.640;23.310;2024-02-14T06:40:28;8.73;;;7.93;;
11681;SDS011;5897;42.640;23.310;2024-02-14T06:42:57;8.40;;;7.60;;
11681;SDS011;5897;42.640;23.310;2024-02-14T06:45:25;8.88;;;7.97;;
11681;SDS011;5897;42.640;23.310;2024-02-14T06:47:57;8.52;;;7.60;;
11681;SDS011;5897;42.640;23.310;2024-02-14T06:50:24;8.02;;;7.22;;
11681;SDS011;5897;42.640;23.310;2024-02-14T06:52:51;8.15;;;7.45;;
11681;SDS011;5897;42.640;23.310;2024-02-14T06:55:18;7.78;;;7.07;;
11681;SDS011;5897;42.640;23.310;2024-02-14T06:57:44;8.63;;;7.57;;
11681;SDS011;5897;42.640;23.310;2024-02-14T07:00:13;7.88;;;7.07;;
11681;SDS011;5897;42.640;23.310;2024-02-14T07:02:40;8.50;;;7.70;;
11681;SDS011;5897;42.640;23.310;2024-02-14T07:05:08;7.88;;;7.13;;
11681;SDS011;5897;42.640;23.310;2024-02-14T07:07:37;7.68;;;6.90;;
11681;SDS011;5897;42.640;23.310;2024-02-14T07:10:05;8.32;;;7.53;;
11681;SDS011;5897;42.640;23.310;2024-02-14T07:12:32;8.10;;;7.30;;
11681;SDS011;5897;42.640;23.310;2024-02-14T07:15:01;8.65;;;7.10;;
11681;SDS011;5897;42.640;23.310;2024-02-14T07:17:30;7.82;;;6.95;;
11681;SDS011;5897;42.640;23.310;2024-02-14T07:19:57;7.97;;;7.18;;
11681;SDS011;5897;42.640;23.310;2024-02-14T07:22:24;8.30;;;6.72;;
11681;SDS011;5897;42.640;23.310;2024-02-14T07:24:51;7.90;;;7.10;;
11681;SDS011;5897;42.640;23.310;2024-02-14T07:27:18;7.30;;;6.60;;
11681;SDS011;5897;42.640;23.310;2024-02-14T07:29:49;7.53;;;6.82;;
11681;SDS011;5897;42.640;23.310;2024-02-14T07:32:15;7.43;;;6.72;;
11681;SDS011;5897;42.640;23.310;2024-02-14T07:34:44;8.20;;;6.70;;
11681;SDS011;5897;42.640;23.310;2024-02-14T07:37:11;7.32;;;6.32;;
11681;SDS011;5897;42.640;23.310;2024-02-14T07:39:40;6.95;;;6.35;;
11681;SDS011;5897;42.640;23.310;2024-02-14T07:42:06;7.32;;;6.63;;
11681;SDS011;5897;42.640;23.310;2024-02-14T07:44:33;7.22;;;6.53;;
11681;SDS011;5897;42.640;23.310;2024-02-14T07:47:01;6.72;;;6.13;;
11681;SDS011;5897;42.640;23.310;2024-02-14T07:49:38;6.85;;;6.13;;
11681;SDS011;5897;42.640;23.310;2024-02-14T07:52:25;6.80;;;6.15;;
11681;SDS011;5897;42.640;23.310;2024-02-14T07:54:55;6.68;;;5.93;;
11681;SDS011;5897;42.640;23.310;2024-02-14T07:57:22;7.38;;;6.60;;
11681;SDS011;5897;42.640;23.310;2024-02-14T07:59:52;6.75;;;6.15;;
11681;SDS011;5897;42.640;23.310;2024-02-14T08:02:38;6.70;;;6.10;;
11681;SDS011;5897;42.640;23.310;2024-02-14T08:05:05;6.90;;;6.30;;
11681;SDS011;5897;42.640;23.310;2024-02-14T08:07:45;7.50;;;6.80;;
11681;SDS011;5897;42.640;23.310;2024-02-14T08:10:47;6.82;;;6.15;;
11681;SDS011;5897;42.640;23.310;2024-02-14T08:13:15;8.82;;;7.53;;
11681;SDS011;5897;42.640;23.310;2024-02-14T08:15:51;8.60;;;7.80;;
11681;SDS011;5897;42.640;23.310;2024-02-14T08:18:22;8.65;;;7.47;;
11681;SDS011;5897;42.640;23.310;2024-02-14T08:21:24;7.82;;;6.85;;
11681;SDS011;5897;42.640;23.310;2024-02-14T08:27:14;6.97;;;6.28;;
11681;SDS011;5897;42.640;23.310;2024-02-14T08:29:55;7.47;;;6.68;;
11681;SDS011;5897;42.640;23.310;2024-02-14T08:32:43;7.22;;;6.63;;
11681;SDS011;5897;42.640;23.310;2024-02-14T08:35:19;6.68;;;6.07;;
11681;SDS011;5897;42.640;23.310;2024-02-14T08:37:55;7.22;;;6.53;;
11681;SDS011;5897;42.640;23.310;2024-02-14T08:41:05;7.05;;;6.22;;
11681;SDS011;5897;42.640;23.310;2024-02-14T08:43:39;6.82;;;6.22;;
11681;SDS011;5897;42.640;23.310;2024-02-14T08:46:49;7.00;;;6.30;;
11681;SDS011;5897;42.640;23.310;2024-02-14T08:49:16;8.00;;;6.40;;
11681;SDS011;5897;42.640;23.310;2024-02-14T08:51:46;6.97;;;6.38;;
11681;SDS011;5897;42.640;23.310;2024-02-14T08:54:13;6.95;;;6.25;;
11681;SDS011;5897;42.640;23.310;2024-02-14T08:56:50;6.63;;;5.93;;
11681;SDS011;5897;42.640;23.310;2024-02-14T08:59:33;8.15;;;6.43;;
11681;SDS011;5897;42.640;23.310;2024-02-14T09:02:16;6.57;;;5.97;;
11681;SDS011;5897;42.640;23.310;2024-02-14T09:07:50;7.25;;;6.50;;
11681;SDS011;5897;42.640;23.310;2024-02-14T09:10:22;7.68;;;6.18;;
11681;SDS011;5897;42.640;23.310;2024-02-14T09:12:50;7.53;;;6.82;;
11681;SDS011;5897;42.640;23.310;2024-02-14T09:15:18;8.27;;;6.60;;
11681;SDS011;5897;42.640;23.310;2024-02-14T09:17:45;6.68;;;6.07;;
11681;SDS011;5897;42.640;23.310;2024-02-14T09:20:13;7.38;;;6.68;;
11681;SDS011;5897;42.640;23.310;2024-02-14T09:22:40;7.80;;;7.00;;
11681;SDS011;5897;42.640;23.310;2024-02-14T09:25:13;7.20;;;6.30;;
11681;SDS011;5897;42.640;23.310;2024-02-14T09:31:12;7.25;;;6.55;;
11681;SDS011;5897;42.640;23.310;2024-02-14T09:33:52;7.30;;;6.55;;
11681;SDS011;5897;42.640;23.310;2024-02-14T09:36:32;8.95;;;6.93;;
11681;SDS011;5897;42.640;23.310;2024-02-14T09:39:17;6.95;;;6.25;;
11681;SDS011;5897;42.640;23.310;2024-02-14T09:41:56;7.53;;;6.78;;
11681;SDS011;5897;42.640;23.310;2024-02-14T09:44:31;8.18;;;6.40;;
11681;SDS011;5897;42.640;23.310;2024-02-14T09:49:59;7.50;;;6.70;;
11681;SDS011;5897;42.640;23.310;2024-02-14T09:52:38;8.27;;;7.38;;
11681;SDS011;5897;42.640;23.310;2024-02-14T09:55:06;7.80;;;7.00;;
11681;SDS011;5897;42.640;23.310;2024-02-14T10:00:52;8.32;;;6.47;;
11681;SDS011;5897;42.640;23.310;2024-02-14T10:04:14;6.80;;;6.20;;
11681;SDS011;5897;42.640;23.310;2024-02-14T10:06:54;6.70;;;6.10;;
11681;SDS011;5897;42.640;23.310;2024-02-14T10:12:11;7.07;;;6.38;;
11681;SDS011;5897;42.640;23.310;2024-02-14T10:14:38;6.80;;;6.20;;
11681;SDS011;5897;42.640;23.310;2024-02-14T10:17:07;6.75;;;6.00;;
11681;SDS011;5897;42.640;23.310;2024-02-14T10:19:35;6.90;;;6.20;;
11681;SDS011;5897;42.640;23.310;2024-02-14T10:22:24;7.15;;;6.45;;
11681;SDS011;5897;42.640;23.310;2024-02-14T10:24:52;7.20;;;6.50;;
11681;SDS011;5897;42.640;23.310;2024-02-14T10:27:20;7.63;;;6.82;;
11681;SDS011;5897;42.640;23.310;2024-02-14T10:30:24;6.55;;;5.95;;
11681;SDS011;5897;42.640;23.310;2024-02-14T10:33:24;7.57;;;6.30;;
11681;SDS011;5897;42.640;23.310;2024-02-14T10:36:33;6.07;;;5.47;;
11681;SDS011;5897;42.640;23.310;2024-02-14T10:39:00;6.22;;;5.63;;
11681;SDS011;5897;42.640;23.310;2024-02-14T10:41:54;5.75;;;5.25;;
11681;SDS011;5897;42.640;23.310;2024-02-14T10:44:21;6.22;;;5.72;;
11681;SDS011;5897;42.640;23.310;2024-02-14T10:46:58;5.88;;;5.28;;
11681;SDS011;5897;42.640;23.310;2024-02-14T10:49:49;5.60;;;5.10;;
11681;SDS011;5897;42.640;23.310;2024-02-14T10:55:19;6.22;;;5.63;;
11681;SDS011;5897;42.640;23.310;2024-02-14T10:58:03;5.90;;;5.40;;
11681;SDS011;5897;42.640;23.310;2024-02-14T11:00:39;6.22;;;5.32;;
11681;SDS011;5897;42.640;23.310;2024-02-14T11:03:14;5.55;;;5.05;;
11681;SDS011;5897;42.640;23.310;2024-02-14T11:05:44;8.38;;;5.78;;
11681;SDS011;5897;42.640;23.310;2024-02-14T11:08:13;6.45;;;5.85;;
11681;SDS011;5897;42.640;23.310;2024-02-14T11:10:40;6.30;;;5.70;;
11681;SDS011;5897;42.640;23.310;2024-02-14T11:13:09;6.82;;;6.13;;
11681;SDS011;5897;42.640;23.310;2024-02-14T11:15:38;6.82;;;6.13;;
11681;SDS011;5897;42.640;23.310;2024-02-14T11:18:24;6.43;;;5.85;;
11681;SDS011;5897;42.640;23.310;2024-02-14T11:24:40;6.43;;;5.75;;
11681;SDS011;5897;42.640;23.310;2024-02-14T11:27:11;6.38;;;5.78;;
11681;SDS011;5897;42.640;23.310;2024-02-14T11:29:38;6.10;;;5.32;;
11681;SDS011;5897;42.640;23.310;2024-02-14T11:32:10;6.32;;;5.72;;
11681;SDS011;5897;42.640;23.310;2024-02-14T11:35:18;6.85;;;5.90;;
11681;SDS011;5897;42.640;23.310;2024-02-14T11:37:52;6.07;;;5.57;;
11681;SDS011;5897;42.640;23.310;2024-02-14T11:40:19;6.22;;;5.63;;
11681;SDS011;5897;42.640;23.310;2024-02-14T11:42:46;6.47;;;5.28;;
11681;SDS011;5897;42.640;23.310;2024-02-14T11:45:30;6.72;;;5.18;;
11681;SDS011;5897;42.640;23.310;2024-02-14T11:48:06;5.70;;;5.20;;
11681;SDS011;5897;42.640;23.310;2024-02-14T11:51:05;5.85;;;5.25;;
11681;SDS011;5897;42.640;23.310;2024-02-14T11:56:46;6.68;;;5.03;;
11681;SDS011;5897;42.640;23.310;2024-02-14T11:59:12;6.55;;;5.93;;
11681;SDS011;5897;42.640;23.310;2024-02-14T12:01:40;6.90;;;6.15;;
11681;SDS011;5897;42.640;23.310;2024-02-14T12:04:07;6.15;;;5.55;;
11681;SDS011;5897;42.640;23.310;2024-02-14T12:06:35;6.20;;;5.60;;
11681;SDS011;5897;42.640;23.310;2024-02-14T12:09:03;9.80;;;5.75;;
11681;SDS011;5897;42.640;23.310;2024-02-14T12:11:40;8.57;;;5.80;;
11681;SDS011;5897;42.640;23.310;2024-02-14T12:14:36;8.27;;;6.05;;
11681;SDS011;5897;42.640;23.310;2024-02-14T12:17:17;7.10;;;5.50;;
11681;SDS011;5897;42.640;23.310;2024-02-14T12:19:44;6.72;;;5.03;;
11681;SDS011;5897;42.640;23.310;2024-02-14T12:22:12;6.28;;;5.20;;
11681;SDS011;5897;42.640;23.310;2024-02-14T12:24:45;6.68;;;5.22;;
11681;SDS011;5897;42.640;23.310;2024-02-14T12:27:14;5.80;;;5.20;;
11681;SDS011;5897;42.640;23.310;2024-02-14T12:29:46;6.95;;;5.20;;
11681;SDS011;5897;42.640;23.310;2024-02-14T12:32:15;5.50;;;4.85;;
11681;SDS011;5897;42.640;23.310;2024-02-14T12:34:43;5.25;;;4.75;;
11681;SDS011;5897;42.640;23.310;2024-02-14T12:37:10;5.90;;;4.60;;
11681;SDS011;5897;42.640;23.310;2024-02-14T12:39:37;5.38;;;4.88;;
11681;SDS011;5897;42.640;23.310;2024-02-14T12:42:04;5.18;;;4.65;;
11681;SDS011;5897;42.640;23.310;2024-02-14T12:44:32;5.63;;;4.97;;
11681;SDS011;5897;42.640;23.310;2024-02-14T12:46:58;5.65;;;4.78;;
11681;SDS011;5897;42.640;23.310;2024-02-14T12:49:25;5.38;;;4.88;;
11681;SDS011;5897;42.640;23.310;2024-02-14T12:51:52;5.53;;;5.03;;
11681;SDS011;5897;42.640;23.310;2024-02-14T12:54:19;5.50;;;4.88;;
11681;SDS011;5897;42.640;23.310;2024-02-14T12:56:45;5.93;;;4.97;;
11681;SDS011;5897;42.640;23.310;2024-02-14T12:59:14;5.53;;;5.03;;
11681;SDS011;5897;42.640;23.310;2024-02-14T13:01:45;5.50;;;5.00;;
11681;SDS011;5897;42.640;23.310;2024-02-14T13:04:12;5.75;;;4.63;;
11681;SDS011;5897;42.640;23.310;2024-02-14T13:06:41;4.68;;;4.28;;
11681;SDS011;5897;42.640;23.310;2024-02-14T13:09:23;6.38;;;4.68;;
11681;SDS011;5897;42.640;23.310;2024-02-14T13:11:49;5.00;;;4.40;;
11681;SDS011;5897;42.640;23.310;2024-02-14T13:14:17;5.18;;;4.55;;
11681;SDS011;5897;42.640;23.310;2024-02-14T13:16:45;5.13;;;4.55;;
11681;SDS011;5897;42.640;23.310;2024-02-14T13:19:13;5.32;;;4.63;;
11681;SDS011;5897;42.640;23.310;2024-02-14T13:21:45;5.70;;;4.70;;
11681;SDS011;5897;42.640;23.310;2024-02-14T13:24:14;4.70;;;4.30;;
11681;SDS011;5897;42.640;23.310;2024-02-14T13:26:43;5.18;;;4.68;;
11681;SDS011;5897;42.640;23.310;2024-02-14T13:29:13;5.50;;;4.60;;
11681;SDS011;5897;42.640;23.310;2024-02-14T13:31:42;5.35;;;4.80;;
11681;SDS011;5897;42.640;23.310;2024-02-14T13:34:20;5.43;;;4.93;;
11681;SDS011;5897;42.640;23.310;2024-02-14T13:36:47;5.30;;;4.32;;
11681;SDS011;5897;42.640;23.310;2024-02-14T13:39:17;5.57;;;4.85;;
11681;SDS011;5897;42.640;23.310;2024-02-14T13:41:45;5.07;;;4.57;;
11681;SDS011;5897;42.640;23.310;2024-02-14T13:44:13;5.15;;;4.55;;
11681;SDS011;5897;42.640;23.310;2024-02-14T13:46:53;5.88;;;5.10;;
11681;SDS011;5897;42.640;23.310;2024-02-14T13:49:22;4.82;;;4.30;;
11681;SDS011;5897;42.640;23.310;2024-02-14T13:51:53;5.25;;;4.38;;
11681;SDS011;5897;42.640;23.310;2024-02-14T13:54:29;5.22;;;4.70;;
11681;SDS011;5897;42.640;23.310;2024-02-14T13:57:01;4.80;;;4.30;;
11681;SDS011;5897;42.640;23.310;2024-02-14T13:59:32;4.80;;;4.40;;
11681;SDS011;5897;42.640;23.310;2024-02-14T14:02:03;6.68;;;4.57;;
11681;SDS011;5897;42.640;23.310;2024-02-14T14:04:30;8.43;;;4.90;;
11681;SDS011;5897;42.640;23.310;2024-02-14T14:07:00;5.88;;;4.30;;
11681;SDS011;5897;42.640;23.310;2024-02-14T14:09:29;6.75;;;4.30;;
11681;SDS011;5897;42.640;23.310;2024-02-14T14:11:57;6.72;;;4.13;;
11681;SDS011;5897;42.640;23.310;2024-02-14T14:14:29;5.63;;;4.35;;
11681;SDS011;5897;42.640;23.310;2024-02-14T14:17:06;5.53;;;4.50;;
11681;SDS011;5897;42.640;23.310;2024-02-14T14:19:35;5.43;;;4.30;;
11681;SDS011;5897;42.640;23.310;2024-02-14T14:22:02;6.47;;;4.28;;
11681;SDS011;5897;42.640;23.310;2024-02-14T14:24:34;4.60;;;4.20;;
11681;SDS011;5897;42.640;23.310;2024-02-14T14:27:02;4.88;;;4.30;;
11681;SDS011;5897;42.640;23.310;2024-02-14T14:29:34;5.47;;;4.53;;
11681;SDS011;5897;42.640;23.310;2024-02-14T14:32:10;6.57;;;4.20;;
11681;SDS011;5897;42.640;23.310;2024-02-14T14:34:41;4.90;;;4.22;;
11681;SDS011;5897;42.640;23.310;2024-02-14T14:37:14;5.05;;;3.78;;
11681;SDS011;5897;42.640;23.310;2024-02-14T14:39:48;5.03;;;4.18;;
11681;SDS011;5897;42.640;23.310;2024-02-14T14:42:16;5.95;;;4.43;;
11681;SDS011;5897;42.640;23.310;2024-02-14T14:44:45;5.82;;;4.53;;
11681;SDS011;5897;42.640;23.310;2024-02-14T14:47:13;5.43;;;3.88;;
11681;SDS011;5897;42.640;23.310;2024-02-14T14:49:39;5.22;;;4.20;;
11681;SDS011;5897;42.640;23.310;2024-02-14T14:53:16;4.22;;;3.60;;
11681;SDS011;5897;42.640;23.310;2024-02-14T14:55:50;5.03;;;3.92;;
11681;SDS011;5897;42.640;23.310;2024-02-14T14:58:20;4.47;;;3.83;;
11681;SDS011;5897;42.640;23.310;2024-02-14T15:00:57;4.70;;;4.30;;
11681;SDS011;5897;42.640;23.310;2024-02-14T15:03:30;7.28;;;4.50;;
11681;SDS011;5897;42.640;23.310;2024-02-14T15:06:10;5.65;;;3.78;;
11681;SDS011;5897;42.640;23.310;2024-02-14T15:08:41;4.90;;;4.40;;
11681;SDS011;5897;42.640;23.310;2024-02-14T15:14:14;4.97;;;4.20;;
11681;SDS011;5897;42.640;23.310;2024-02-14T15:16:51;4.75;;;4.25;;
11681;SDS011;5897;42.640;23.310;2024-02-14T15:19:40;4.93;;;4.35;;
11681;SDS011;5897;42.640;23.310;2024-02-14T15:22:28;5.95;;;4.03;;
11681;SDS011;5897;42.640;23.310;2024-02-14T15:25:21;7.35;;;4.47;;
11681;SDS011;5897;42.640;23.310;2024-02-14T15:28:13;4.85;;;3.90;;
11681;SDS011;5897;42.640;23.310;2024-02-14T15:30:55;5.07;;;4.30;;
11681;SDS011;5897;42.640;23.310;2024-02-14T15:33:39;5.72;;;4.50;;
11681;SDS011;5897;42.640;23.310;2024-02-14T15:36:09;4.93;;;4.03;;
11681;SDS011;5897;42.640;23.310;2024-02-14T15:38:38;5.20;;;4.32;;
11681;SDS011;5897;42.640;23.310;2024-02-14T15:41:05;5.63;;;4.88;;
11681;SDS011;5897;42.640;23.310;2024-02-14T15:43:32;5.72;;;4.95;;